Time;durP1;ratioP1;P1;durP2;ratioP2;P2;SDS_P1;SDS_P2;PMS_P1;PMS_P2;Temp;Humidity;BMP_temperature;BMP_pressure;BME280_temperature;BME280_humidity;BME280_pressure;Samples;Min_cycle;Max_cycle;Signal;HPM_P1;HPM_P2
2022/06/02 00:02:02;;;;;;;6.47;4.93;;;10.90;99.90;;;;;;5011975;28;20599;-69
2022/06/02 00:04:36;;;;;;;5.60;3.57;;;10.90;99.90;;;;;;5013633;28;20458;-70
2022/06/02 00:07:06;;;;;;;6.17;3.80;;;11.00;99.90;;;;;;5012384;28;20865;-69
2022/06/02 00:09:51;;;;;;;5.70;3.93;;;11.00;99.90;;;;;;5015766;28;20525;-71
2022/06/02 00:12:27;;;;;;;6.30;4.40;;;10.90;99.90;;;;;;5020432;28;20988;-70
2022/06/02 00:15:03;;;;;;;6.70;4.37;;;10.80;99.90;;;;;;5016484;28;20431;-70
2022/06/02 00:17:39;;;;;;;6.07;3.77;;;10.80;99.90;;;;;;5012383;28;20513;-69
2022/06/02 00:20:13;;;;;;;5.70;4.33;;;10.80;99.90;;;;;;5013632;28;20435;-69
2022/06/02 00:22:48;;;;;;;5.10;4.40;;;10.80;99.90;;;;;;5008257;28;20476;-69
2022/06/02 00:25:28;;;;;;;8.37;4.83;;;10.90;99.90;;;;;;5014869;28;20434;-70
2022/06/02 00:28:03;;;;;;;5.83;4.20;;;10.90;99.90;;;;;;5018776;28;20465;-69
2022/06/02 00:30:34;;;;;;;8.70;3.87;;;11.00;99.90;;;;;;5016442;28;20493;-69
2022/06/02 00:33:16;;;;;;;7.23;4.50;;;10.80;99.90;;;;;;5012236;28;20461;-69
2022/06/02 00:35:51;;;;;;;7.53;4.13;;;10.70;99.90;;;;;;5006408;28;20494;-70
2022/06/02 00:38:26;;;;;;;5.43;4.53;;;10.70;99.90;;;;;;5011665;28;20509;-69
2022/06/02 00:40:58;;;;;;;5.53;4.23;;;10.70;99.90;;;;;;5014540;28;20497;-69
2022/06/02 00:43:43;;;;;;;6.07;4.40;;;10.70;99.90;;;;;;5016487;28;20458;-70
2022/06/02 00:46:16;;;;;;;5.50;4.77;;;10.70;99.90;;;;;;5010644;28;20495;-70
2022/06/02 00:48:54;;;;;;;7.40;4.30;;;11.00;99.90;;;;;;5021519;28;20827;-70
2022/06/02 00:51:29;;;;;;;8.33;4.47;;;11.00;99.90;;;;;;5003985;28;21066;-70
2022/06/02 00:59:57;;;;;;;4.70;3.57;;;10.90;99.90;;;;;;5010023;28;20479;-70
2022/06/02 01:02:27;;;;;;;6.47;4.37;;;10.80;99.90;;;;;;5010759;28;20452;-69
2022/06/02 01:05:00;;;;;;;5.27;3.97;;;10.70;99.90;;;;;;5008783;28;20469;-70
2022/06/02 01:07:37;;;;;;;12.07;6.37;;;10.70;99.90;;;;;;5003296;28;20486;-70
2022/06/02 01:10:22;;;;;;;7.80;6.00;;;10.80;99.90;;;;;;5015092;28;20434;-69
2022/06/02 01:13:04;;;;;;;8.17;4.50;;;10.80;99.90;;;;;;5020196;28;20937;-70
2022/06/02 01:15:42;;;;;;;5.20;3.73;;;10.90;99.90;;;;;;5009889;28;20956;-69
2022/06/02 01:18:17;;;;;;;7.87;5.00;;;10.70;99.90;;;;;;5015295;28;20473;-70
2022/06/02 01:20:54;;;;;;;4.97;3.63;;;10.50;99.90;;;;;;5015182;28;20434;-70
2022/06/02 01:24:00;;;;;;;6.00;4.27;;;10.50;99.90;;;;;;5010954;28;20911;-71
2022/06/02 01:27:01;;;;;;;6.00;4.30;;;10.70;99.90;;;;;;5014093;28;20438;-70
2022/06/02 01:29:52;;;;;;;8.90;5.07;;;10.90;99.90;;;;;;5019165;28;20475;-70
2022/06/02 01:32:28;;;;;;;4.63;3.23;;;10.90;99.90;;;;;;5013780;28;20435;-70
2022/06/02 01:35:03;;;;;;;5.57;4.10;;;10.90;99.90;;;;;;5012627;28;20486;-70
2022/06/02 01:37:37;;;;;;;9.13;4.50;;;10.80;99.90;;;;;;5013286;28;20506;-70
2022/06/02 01:40:12;;;;;;;8.43;5.30;;;10.70;99.90;;;;;;5019980;28;20554;-70
2022/06/02 01:42:53;;;;;;;4.53;3.23;;;10.60;99.90;;;;;;5019551;28;20833;-70
2022/06/02 01:45:35;;;;;;;4.30;3.50;;;10.30;99.90;;;;;;5025193;28;20456;-70
2022/06/02 01:48:15;;;;;;;5.50;3.93;;;10.20;99.90;;;;;;5021863;28;20505;-70
2022/06/02 01:50:53;;;;;;;10.10;3.77;;;10.20;99.90;;;;;;5016812;28;20842;-70
2022/06/02 01:53:34;;;;;;;5.30;3.77;;;10.10;99.90;;;;;;5014029;28;20464;-70
2022/06/02 01:56:20;;;;;;;4.73;3.60;;;10.10;99.90;;;;;;5013606;28;20431;-69
2022/06/02 01:58:57;;;;;;;4.90;3.30;;;10.00;99.90;;;;;;5015120;28;20465;-69
2022/06/02 02:01:40;;;;;;;6.60;4.23;;;10.00;99.90;;;;;;5017633;28;21004;-70
2022/06/02 02:04:24;;;;;;;5.80;3.87;;;9.90;99.90;;;;;;5018482;28;20883;-70
2022/06/02 02:07:01;;;;;;;5.63;3.23;;;9.80;99.90;;;;;;5014792;28;20863;-70
2022/06/02 02:09:35;;;;;;;4.40;3.30;;;9.50;99.90;;;;;;5013870;28;20461;-69
2022/06/02 02:12:04;;;;;;;10.33;3.83;;;9.60;99.90;;;;;;5018763;28;20522;-69
2022/06/02 02:14:56;;;;;;;5.70;5.30;;;9.60;99.90;;;;;;5014068;28;20500;-70
2022/06/02 02:17:48;;;;;;;4.83;3.53;;;9.70;99.90;;;;;;5016328;28;20430;-70
2022/06/02 02:20:26;;;;;;;5.77;4.10;;;9.80;99.90;;;;;;5017661;28;20467;-70
2022/06/02 02:23:00;;;;;;;11.23;4.60;;;9.70;99.90;;;;;;5019237;28;20980;-70
2022/06/02 02:25:45;;;;;;;6.17;4.80;;;9.70;99.90;;;;;;5011919;28;20986;-70
2022/06/02 02:28:18;;;;;;;6.40;3.77;;;9.70;99.90;;;;;;5018714;28;21009;-70
2022/06/02 02:31:10;;;;;;;5.40;3.70;;;9.70;99.90;;;;;;5021368;28;20435;-70
2022/06/02 02:33:46;;;;;;;4.67;3.70;;;9.70;99.90;;;;;;5022499;28;20466;-70
2022/06/02 02:36:24;;;;;;;7.47;5.00;;;9.70;99.90;;;;;;5018160;28;20498;-69
2022/06/02 02:39:01;;;;;;;8.10;5.03;;;9.60;99.90;;;;;;5010944;28;20565;-68
2022/06/02 02:41:37;;;;;;;6.70;5.07;;;9.60;99.90;;;;;;5008160;28;20515;-67
2022/06/02 02:44:13;;;;;;;8.30;4.63;;;9.60;99.90;;;;;;5013186;28;20438;-67
2022/06/02 02:46:50;;;;;;;8.97;4.70;;;9.60;99.90;;;;;;5011677;28;20514;-68
2022/06/02 02:49:22;;;;;;;10.07;4.20;;;9.50;99.90;;;;;;5011848;28;20533;-67
2022/06/02 02:51:58;;;;;;;5.93;3.77;;;9.50;99.90;;;;;;5005517;28;20845;-67
2022/06/02 02:54:32;;;;;;;6.97;4.47;;;9.40;99.90;;;;;;5012073;28;20434;-66
2022/06/02 02:57:05;;;;;;;12.30;5.87;;;9.30;99.90;;;;;;5006261;28;20525;-67
2022/06/02 02:59:40;;;;;;;16.97;6.63;;;9.30;99.90;;;;;;5009383;28;20941;-66
2022/06/02 03:02:15;;;;;;;9.97;4.00;;;9.30;99.90;;;;;;5005732;28;20514;-67
2022/06/02 03:04:52;;;;;;;10.37;4.40;;;9.30;99.90;;;;;;5008070;28;20473;-67
2022/06/02 03:07:21;;;;;;;7.63;5.70;;;9.20;99.90;;;;;;5005182;28;20516;-68
2022/06/02 03:10:05;;;;;;;6.00;4.00;;;9.20;99.90;;;;;;5044488;22;21000;-70
2022/06/02 03:12:55;;;;;;;9.77;5.00;;;9.20;99.90;;;;;;5033093;28;20437;-70
2022/06/02 03:15:27;;;;;;;7.33;5.80;;;9.30;99.90;;;;;;5033600;28;20600;-72
2022/06/02 03:18:24;;;;;;;7.30;4.57;;;9.30;99.90;;;;;;5028848;28;20619;-70
2022/06/02 03:20:57;;;;;;;6.80;4.10;;;9.20;99.90;;;;;;5007451;28;20479;-71
2022/06/02 03:23:58;;;;;;;7.33;4.73;;;9.10;99.90;;;;;;5012020;28;20818;-70
2022/06/02 03:26:35;;;;;;;5.90;4.03;;;9.20;99.90;;;;;;5004740;28;20892;-71
2022/06/02 03:29:08;;;;;;;8.83;5.53;;;9.20;99.90;;;;;;5012386;28;20490;-71
2022/06/02 03:31:45;;;;;;;8.33;5.17;;;9.30;99.90;;;;;;5015764;28;20859;-70
2022/06/02 03:34:18;;;;;;;8.57;5.87;;;9.30;99.90;;;;;;5008584;28;20478;-70
2022/06/02 03:37:11;;;;;;;9.33;6.60;;;9.40;99.90;;;;;;5016117;28;20450;-71
2022/06/02 03:39:54;;;;;;;14.10;5.70;;;9.40;99.90;;;;;;5012448;28;20482;-70
2022/06/02 03:42:30;;;;;;;7.80;5.03;;;9.00;99.90;;;;;;5013699;28;20435;-70
2022/06/02 03:45:11;;;;;;;7.07;4.97;;;8.80;99.90;;;;;;5007770;28;20962;-70
2022/06/02 03:47:54;;;;;;;10.60;5.87;;;9.00;99.90;;;;;;5005674;28;20463;-71
2022/06/02 03:50:53;;;;;;;9.73;6.20;;;9.10;99.90;;;;;;5003805;28;20430;-71
2022/06/02 03:53:43;;;;;;;9.77;6.03;;;9.20;99.90;;;;;;4991573;28;20451;-70
2022/06/02 03:56:22;;;;;;;8.60;6.30;;;8.90;99.90;;;;;;5015479;28;20963;-70
2022/06/02 03:59:01;;;;;;;6.80;6.13;;;8.70;99.90;;;;;;5005378;28;20455;-70
2022/06/02 04:01:33;;;;;;;4.90;4.27;;;9.00;99.90;;;;;;5005284;28;20489;-72
2022/06/02 04:04:14;;;;;;;6.27;4.37;;;9.10;99.90;;;;;;5002508;28;20464;-71
2022/06/02 04:06:53;;;;;;;12.80;7.57;;;9.20;99.90;;;;;;5007591;28;20506;-70
2022/06/02 04:09:32;;;;;;;8.87;5.80;;;9.20;99.90;;;;;;5016647;28;21083;-70
2022/06/02 04:15:12;;;;;;;4.83;4.30;;;9.40;99.90;;;;;;5016410;28;21001;-71
2022/06/02 04:17:47;;;;;;;8.63;4.53;;;9.30;99.90;;;;;;5001771;28;20435;-70
2022/06/02 04:20:41;;;;;;;7.73;3.90;;;9.40;99.90;;;;;;5014527;28;20828;-69
2022/06/02 04:23:22;;;;;;;10.00;6.27;;;9.40;99.90;;;;;;5002205;28;20470;-70
2022/06/02 04:25:55;;;;;;;8.10;5.47;;;9.40;99.90;;;;;;5017118;28;20435;-70
2022/06/02 04:28:34;;;;;;;8.50;4.73;;;9.40;99.90;;;;;;5019051;28;21054;-69
2022/06/02 04:31:13;;;;;;;5.33;4.67;;;9.50;99.90;;;;;;5014733;28;20592;-70
2022/06/02 04:33:47;;;;;;;11.43;6.73;;;9.60;99.90;;;;;;5018936;28;20938;-70
2022/06/02 04:36:27;;;;;;;8.80;5.90;;;9.60;99.90;;;;;;5016487;28;20795;-70
2022/06/02 04:39:02;;;;;;;9.13;6.80;;;9.70;99.90;;;;;;5014691;28;21232;-70
2022/06/02 04:41:36;;;;;;;10.60;6.27;;;9.80;99.90;;;;;;5018159;28;20463;-71
2022/06/02 04:44:14;;;;;;;11.70;5.70;;;10.00;99.90;;;;;;5017377;28;20461;-70
2022/06/02 04:46:51;;;;;;;14.03;6.07;;;10.10;99.90;;;;;;5015186;28;20502;-71
2022/06/02 04:49:32;;;;;;;7.27;5.30;;;10.20;99.90;;;;;;5008975;28;20463;-70
2022/06/02 04:52:06;;;;;;;8.37;5.83;;;10.30;99.90;;;;;;5019413;28;20451;-70
2022/06/02 04:54:42;;;;;;;10.93;6.47;;;10.40;99.90;;;;;;5018350;28;20457;-70
2022/06/02 04:57:17;;;;;;;13.27;8.00;;;10.70;99.90;;;;;;5018874;28;20478;-71
2022/06/02 04:59:54;;;;;;;10.60;7.23;;;10.80;99.90;;;;;;5016423;28;20450;-71
2022/06/02 05:02:27;;;;;;;10.50;7.00;;;11.00;99.90;;;;;;5018855;28;20476;-71
2022/06/02 05:05:05;;;;;;;11.37;7.07;;;11.10;99.90;;;;;;5013748;28;20434;-71
2022/06/02 05:07:45;;;;;;;14.37;6.70;;;11.30;99.90;;;;;;5013234;28;20449;-71
2022/06/02 05:10:18;;;;;;;8.03;6.63;;;11.50;99.90;;;;;;5016347;28;20967;-69
2022/06/02 05:12:54;;;;;;;15.23;7.20;;;11.70;99.90;;;;;;5023773;28;20485;-71
2022/06/02 05:16:04;;;;;;;10.30;6.80;;;12.10;99.90;;;;;;5016585;28;20461;-71
2022/06/02 05:18:46;;;;;;;12.10;7.60;;;12.70;99.90;;;;;;5010428;28;20484;-72
2022/06/02 05:21:40;;;;;;;9.67;8.17;;;13.30;99.90;;;;;;5019293;28;20446;-71
2022/06/02 05:24:34;;;;;;;12.10;6.53;;;13.60;99.90;;;;;;5018692;28;20457;-72
2022/06/02 05:27:21;;;;;;;11.53;6.80;;;13.80;99.90;;;;;;5020965;28;20460;-72
2022/06/02 05:30:16;;;;;;;9.93;6.23;;;14.40;99.90;;;;;;5019505;28;20890;-71
2022/06/02 05:33:18;;;;;;;12.80;7.70;;;15.10;99.90;;;;;;5020249;28;20465;-72
2022/06/02 05:36:02;;;;;;;15.83;8.57;;;15.20;99.90;;;;;;5020847;28;20810;-72
2022/06/02 05:38:54;;;;;;;15.03;5.70;;;14.60;99.90;;;;;;5016717;28;20864;-71
2022/06/02 05:41:35;;;;;;;10.60;6.73;;;15.10;99.90;;;;;;5014939;28;20514;-71
2022/06/02 05:44:10;;;;;;;12.47;7.07;;;15.40;99.90;;;;;;5019083;28;20461;-71
2022/06/02 05:47:00;;;;;;;8.37;6.60;;;15.70;99.90;;;;;;5018058;28;20464;-71
2022/06/02 05:49:37;;;;;;;9.90;6.73;;;15.90;99.90;;;;;;5016634;28;20543;-72
2022/06/02 05:52:16;;;;;;;10.03;7.43;;;16.00;99.90;;;;;;5021926;28;20479;-72
2022/06/02 05:54:49;;;;;;;8.73;6.90;;;15.90;99.90;;;;;;5022024;28;20452;-72
2022/06/02 05:57:31;;;;;;;11.40;7.43;;;16.20;99.90;;;;;;5016487;28;20499;-72
2022/06/02 06:00:16;;;;;;;10.53;6.77;;;16.30;99.90;;;;;;5015264;28;20484;-73
2022/06/02 06:03:07;;;;;;;10.70;8.23;;;17.00;99.90;;;;;;5022665;28;20999;-72
2022/06/02 06:05:39;;;;;;;10.77;7.00;;;17.00;99.90;;;;;;5022314;28;20518;-71
2022/06/02 06:08:18;;;;;;;7.57;5.90;;;17.60;99.90;;;;;;5017582;28;20458;-71
2022/06/02 06:10:54;;;;;;;8.13;6.33;;;17.70;99.90;;;;;;5018738;28;20477;-71
2022/06/02 06:13:39;;;;;;;11.07;6.90;;;17.60;99.90;;;;;;5020393;28;20493;-71
2022/06/02 06:16:13;;;;;;;8.70;6.60;;;18.10;99.90;;;;;;5023103;28;21336;-71
2022/06/02 06:18:49;;;;;;;12.47;7.20;;;18.60;99.90;;;;;;5019675;28;20477;-71
2022/06/02 06:21:33;;;;;;;8.57;6.70;;;18.90;99.90;;;;;;5017207;28;20469;-72
2022/06/02 06:24:21;;;;;;;9.20;7.10;;;19.30;99.90;;;;;;5018002;28;20464;-71
2022/06/02 06:26:57;;;;;;;7.73;6.83;;;19.30;99.90;;;;;;5019892;28;20473;-72
2022/06/02 06:29:41;;;;;;;9.70;7.50;;;19.70;99.90;;;;;;5013309;28;20488;-72
2022/06/02 06:32:19;;;;;;;10.00;6.70;;;19.70;99.90;;;;;;5016958;28;20512;-72
2022/06/02 06:34:52;;;;;;;9.40;6.27;;;19.30;99.90;;;;;;5016527;28;20612;-71
2022/06/02 06:37:43;;;;;;;8.60;6.37;;;19.00;99.90;;;;;;5015307;28;20477;-71
2022/06/02 06:40:22;;;;;;;8.30;6.07;;;19.20;99.90;;;;;;5015162;28;20484;-71
2022/06/02 06:42:58;;;;;;;6.70;5.53;;;19.20;99.90;;;;;;5019941;28;20469;-71
2022/06/02 06:45:31;;;;;;;7.90;5.73;;;18.20;99.90;;;;;;5017130;28;20920;-70
2022/06/02 06:48:02;;;;;;;5.60;5.03;;;18.50;99.90;;;;;;5017246;28;20468;-71
2022/06/02 06:50:38;;;;;;;9.97;6.10;;;19.20;99.90;;;;;;5017191;28;21107;-71
2022/06/02 06:53:30;;;;;;;7.93;6.13;;;19.50;99.90;;;;;;5013151;28;20457;-73
2022/06/02 06:56:05;;;;;;;4.93;4.43;;;19.50;99.90;;;;;;5017394;28;20457;-72
2022/06/02 06:58:46;;;;;;;6.10;4.60;;;19.70;99.90;;;;;;5014323;28;20568;-73
2022/06/02 07:01:22;;;;;;;6.40;5.57;;;19.90;99.90;;;;;;5015824;28;20464;-71
2022/06/02 07:03:56;;;;;;;7.10;5.40;;;21.10;99.90;;;;;;5015836;28;20551;-71
2022/06/02 07:06:31;;;;;;;6.63;5.17;;;21.70;99.90;;;;;;5020417;28;20480;-73
2022/06/02 07:09:07;;;;;;;5.70;5.10;;;21.50;99.90;;;;;;5019042;28;20582;-72
2022/06/02 07:14:30;;;;;;;6.50;4.13;;;19.80;99.90;;;;;;5017026;28;20546;-71
2022/06/02 07:16:57;;;;;;;7.83;4.13;;;18.80;99.90;;;;;;5015040;28;20515;-71
2022/06/02 07:19:32;;;;;;;4.77;4.20;;;17.80;99.90;;;;;;5017612;28;21099;-71
2022/06/02 07:22:05;;;;;;;4.03;3.63;;;17.30;99.90;;;;;;5014789;28;20469;-71
2022/06/02 07:24:45;;;;;;;8.80;5.17;;;17.40;99.90;;;;;;5015575;28;20474;-72
2022/06/02 07:27:19;;;;;;;5.67;4.17;;;17.30;99.90;;;;;;5017618;28;20517;-71
2022/06/02 07:29:59;;;;;;;5.23;4.10;;;17.10;99.90;;;;;;5013636;28;20481;-71
2022/06/02 07:32:55;;;;;;;8.70;5.10;;;17.20;99.90;;;;;;5017221;28;20468;-71
2022/06/02 07:35:48;;;;;;;7.47;4.93;;;17.80;99.90;;;;;;5016630;28;20512;-71
2022/06/02 07:38:29;;;;;;;6.70;4.00;;;17.80;99.90;;;;;;5015685;28;20477;-73
2022/06/02 07:41:15;;;;;;;4.20;3.80;;;17.70;99.90;;;;;;5016572;28;20874;-72
2022/06/02 07:44:08;;;;;;;5.50;3.20;;;18.60;99.90;;;;;;5016136;28;20464;-72
2022/06/02 07:46:52;;;;;;;4.70;4.13;;;19.80;99.90;;;;;;5015506;28;20457;-72
2022/06/02 07:49:41;;;;;;;7.87;3.60;;;21.50;99.90;;;;;;5014333;28;21124;-71
2022/06/02 07:52:18;;;;;;;4.90;3.60;;;21.90;99.90;;;;;;5016917;28;20459;-70
2022/06/02 07:54:57;;;;;;;5.17;3.80;;;22.30;99.90;;;;;;5014876;28;20561;-70
2022/06/02 07:57:36;;;;;;;6.10;4.30;;;22.20;99.90;;;;;;5015274;28;20526;-71
2022/06/02 08:00:13;;;;;;;4.90;4.37;;;21.10;99.90;;;;;;5016345;28;20505;-71
2022/06/02 08:03:01;;;;;;;4.30;3.90;;;21.20;99.90;;;;;;5017746;28;20854;-70
2022/06/02 08:05:37;;;;;;;3.77;3.30;;;21.80;99.90;;;;;;5018286;28;20912;-70
2022/06/02 08:08:13;;;;;;;3.90;3.50;;;21.20;99.90;;;;;;5020346;28;20460;-69
2022/06/02 08:10:52;;;;;;;4.00;3.23;;;20.80;99.90;;;;;;5018328;28;20891;-70
2022/06/02 08:13:31;;;;;;;7.10;3.47;;;20.20;99.90;;;;;;5016076;28;20468;-72
2022/06/02 08:16:07;;;;;;;4.20;3.30;;;20.20;99.90;;;;;;5013558;28;20664;-71
2022/06/02 08:18:49;;;;;;;2.97;2.67;;;20.00;99.90;;;;;;5016325;28;20539;-72
2022/06/02 08:21:25;;;;;;;2.60;2.40;;;20.10;99.90;;;;;;5012787;28;20542;-71
2022/06/02 08:24:10;;;;;;;5.23;3.37;;;21.00;99.90;;;;;;5016449;28;20555;-69
2022/06/02 08:26:45;;;;;;;3.53;3.23;;;22.00;99.90;;;;;;5014537;28;20487;-70
2022/06/02 08:29:30;;;;;;;4.27;3.67;;;22.90;99.90;;;;;;5013942;28;21019;-73
2022/06/02 08:32:28;;;;;;;4.03;3.63;;;23.50;99.90;;;;;;5017272;28;20961;-70
2022/06/02 08:35:04;;;;;;;4.10;3.70;;;23.90;99.90;;;;;;5016318;28;20461;-70
2022/06/02 08:37:45;;;;;;;4.50;4.10;;;24.60;99.20;;;;;;5013638;28;20473;-72
2022/06/02 08:40:45;;;;;;;4.70;3.17;;;25.20;97.60;;;;;;5011608;28;20480;-71
2022/06/02 08:43:35;;;;;;;4.80;3.87;;;25.70;95.30;;;;;;5008122;28;20461;-71
2022/06/02 08:46:31;;;;;;;3.80;3.30;;;25.00;92.10;;;;;;5013240;28;20492;-70
2022/06/02 08:49:28;;;;;;;4.83;4.43;;;24.50;94.30;;;;;;5007317;28;20851;-71
2022/06/02 08:52:51;;;;;;;4.37;3.97;;;25.70;95.30;;;;;;5013213;28;20502;-72
2022/06/02 08:55:45;;;;;;;5.30;4.63;;;26.40;90.10;;;;;;5014657;28;20460;-71
2022/06/02 08:58:44;;;;;;;6.03;4.83;;;26.40;90.10;;;;;;5017985;28;20457;-71
2022/06/02 09:01:18;;;;;;;5.10;4.60;;;25.40;91.20;;;;;;4968924;28;20521;-72
2022/06/02 09:04:29;;;;;;;5.70;4.03;;;24.30;92.10;;;;;;5017238;28;20461;-71
2022/06/02 09:07:22;;;;;;;4.10;3.73;;;24.10;93.60;;;;;;4979398;28;20454;-71
2022/06/02 09:10:25;;;;;;;4.27;3.70;;;24.60;92.20;;;;;;5035742;22;20565;-67
2022/06/02 09:13:22;;;;;;;4.30;3.90;;;24.30;91.80;;;;;;5034660;28;20574;-67
2022/06/02 09:16:13;;;;;;;6.80;4.00;;;22.50;93.90;;;;;;5033174;28;20883;-69
2022/06/02 09:19:13;;;;;;;3.60;3.30;;;21.90;94.60;;;;;;5044426;28;20467;-66
2022/06/02 09:22:13;;;;;;;6.13;3.67;;;22.10;94.70;;;;;;5040920;28;20461;-67
2022/06/02 09:24:44;;;;;;;4.40;3.73;;;22.80;93.70;;;;;;5035316;28;20758;-67
2022/06/02 09:27:42;;;;;;;5.60;5.03;;;22.50;92.40;;;;;;5037584;28;20465;-67
2022/06/02 09:30:15;;;;;;;3.07;2.80;;;24.40;92.80;;;;;;5036442;28;20820;-67
2022/06/02 09:32:59;;;;;;;3.50;3.17;;;25.60;89.90;;;;;;5036338;28;20463;-67
2022/06/02 09:35:36;;;;;;;4.33;3.33;;;24.60;87.30;;;;;;5041886;28;20592;-68
2022/06/02 09:38:38;;;;;;;3.30;3.00;;;24.50;89.60;;;;;;5035385;28;20933;-68
2022/06/02 09:41:34;;;;;;;4.50;3.20;;;23.40;86.40;;;;;;5032908;28;20526;-67
2022/06/02 09:44:15;;;;;;;2.57;2.17;;;22.10;87.10;;;;;;5037898;28;20459;-69
2022/06/02 09:47:08;;;;;;;2.70;2.50;;;21.50;89.50;;;;;;5035206;28;20925;-69
2022/06/02 09:50:00;;;;;;;3.33;2.93;;;21.50;90.00;;;;;;5032927;28;20933;-68
2022/06/02 09:52:40;;;;;;;3.67;2.70;;;21.90;93.20;;;;;;5032224;28;20456;-69
2022/06/02 09:55:29;;;;;;;3.70;2.53;;;22.50;92.00;;;;;;5030334;28;20460;-68
2022/06/02 09:58:30;;;;;;;3.00;2.17;;;22.70;91.50;;;;;;5033566;28;20468;-68
2022/06/02 10:01:11;;;;;;;2.47;2.27;;;22.10;86.90;;;;;;5034283;28;20476;-69
2022/06/02 10:04:06;;;;;;;2.27;1.93;;;22.50;91.00;;;;;;5038497;28;20567;-68
2022/06/02 10:06:59;;;;;;;2.40;2.20;;;24.80;90.70;;;;;;5039471;28;20491;-69
2022/06/02 10:09:37;;;;;;;2.67;2.47;;;26.80;78.30;;;;;;5038672;28;20492;-69
2022/06/02 10:15:17;;;;;;;3.27;2.97;;;25.80;77.60;;;;;;5037411;28;20456;-68
2022/06/02 10:18:19;;;;;;;2.47;2.27;;;24.60;77.30;;;;;;5039206;28;20513;-68
2022/06/02 10:21:03;;;;;;;3.27;2.97;;;23.90;80.80;;;;;;5030920;28;20953;-68
2022/06/02 10:24:21;;;;;;;2.87;2.63;;;25.20;81.90;;;;;;5035158;28;20495;-68
2022/06/02 10:27:02;;;;;;;2.70;2.23;;;26.00;73.40;;;;;;5033427;28;20464;-68
2022/06/02 10:29:56;;;;;;;2.80;2.50;;;24.70;74.30;;;;;;5032276;28;20911;-68
2022/06/02 10:33:14;;;;;;;3.30;2.20;;;24.40;78.00;;;;;;5037246;28;20508;-67
2022/06/02 10:36:04;;;;;;;2.87;2.07;;;23.70;76.60;;;;;;5031533;28;20683;-68
2022/06/02 10:38:42;;;;;;;2.90;2.57;;;23.50;76.30;;;;;;5033655;28;20543;-68
2022/06/02 10:41:35;;;;;;;2.20;2.00;;;24.80;77.40;;;;;;5035178;28;20453;-69
2022/06/02 10:44:13;;;;;;;2.60;2.30;;;26.30;74.10;;;;;;5036404;28;20600;-69
2022/06/02 10:47:14;;;;;;;2.20;2.00;;;27.20;70.00;;;;;;5032260;28;20519;-69
2022/06/02 10:49:53;;;;;;;3.40;2.60;;;26.40;68.70;;;;;;5034455;28;20485;-68
2022/06/02 10:53:00;;;;;;;2.80;2.60;;;24.90;72.70;;;;;;5031052;28;20458;-68
2022/06/02 10:56:01;;;;;;;4.70;2.90;;;23.10;76.40;;;;;;5033731;28;20468;-68
2022/06/02 10:59:10;;;;;;;2.73;2.47;;;23.10;77.30;;;;;;5029379;28;20880;-67
2022/06/02 11:02:28;;;;;;;4.90;2.70;;;24.50;81.70;;;;;;5031783;28;20449;-69
2022/06/02 11:05:29;;;;;;;2.50;2.30;;;25.90;74.00;;;;;;5036039;28;20459;-68
2022/06/02 11:08:47;;;;;;;5.10;1.90;;;24.90;72.90;;;;;;5036364;28;20882;-68
2022/06/02 11:11:37;;;;;;;2.10;1.90;;;24.30;76.40;;;;;;4954703;28;20542;-68
2022/06/02 11:14:34;;;;;;;4.80;2.33;;;24.00;72.90;;;;;;4956635;28;20510;-68
2022/06/02 11:17:24;;;;;;;2.23;1.83;;;22.90;70.60;;;;;;5021065;28;20460;-68
2022/06/02 11:20:23;;;;;;;2.33;2.10;;;22.50;71.40;;;;;;5033185;28;20498;-67
2022/06/02 11:23:30;;;;;;;3.10;2.80;;;22.80;72.80;;;;;;4963429;28;20457;-68
2022/06/02 11:26:36;;;;;;;2.57;2.13;;;22.70;75.20;;;;;;5030495;28;24325;-68
2022/06/02 11:29:44;;;;;;;6.07;2.47;;;22.90;75.50;;;;;;5032112;28;20487;-67
2022/06/02 11:32:18;;;;;;;3.13;2.83;;;23.90;80.10;;;;;;5036803;28;20459;-68
2022/06/02 11:35:01;;;;;;;2.10;1.57;;;25.70;75.10;;;;;;5037190;28;20541;-69
2022/06/02 11:37:54;;;;;;;4.87;2.00;;;27.00;70.80;;;;;;5031193;28;20475;-69
2022/06/02 11:40:35;;;;;;;3.50;2.47;;;27.40;68.40;;;;;;5030688;28;20494;-68
2022/06/02 11:43:12;;;;;;;2.70;2.13;;;29.10;65.40;;;;;;5034349;28;20542;-69
2022/06/02 11:46:09;;;;;;;2.73;2.53;;;30.20;59.70;;;;;;5035243;28;20460;-68
2022/06/02 11:48:59;;;;;;;2.83;2.23;;;30.10;57.40;;;;;;5031484;28;20456;-68
2022/06/02 11:52:04;;;;;;;3.63;3.33;;;30.10;56.40;;;;;;5034585;28;20579;-68
2022/06/02 11:54:58;;;;;;;4.13;2.00;;;30.30;56.00;;;;;;5038027;28;20464;-69
2022/06/02 11:57:39;;;;;;;2.20;2.00;;;30.60;54.40;;;;;;5028963;28;20460;-68
2022/06/02 12:00:31;;;;;;;2.10;1.90;;;30.20;53.30;;;;;;5031763;28;20506;-68
2022/06/02 12:03:15;;;;;;;2.23;1.87;;;30.60;53.80;;;;;;5034058;28;20792;-67
2022/06/02 12:06:14;;;;;;;2.10;1.77;;;30.20;53.40;;;;;;5031598;28;20542;-68
2022/06/02 12:09:08;;;;;;;2.73;1.90;;;30.10;51.80;;;;;;5033183;28;20472;-68
2022/06/02 12:11:51;;;;;;;2.90;1.97;;;29.50;51.10;;;;;;5027718;28;20483;-68
2022/06/02 12:14:38;;;;;;;1.80;1.70;;;29.60;53.80;;;;;;5032747;28;20493;-71
2022/06/02 12:17:32;;;;;;;2.17;1.97;;;30.10;53.70;;;;;;5031021;28;20879;-68
2022/06/02 12:20:30;;;;;;;2.43;1.80;;;30.70;51.40;;;;;;5033268;28;20941;-69
2022/06/02 12:23:19;;;;;;;1.90;1.80;;;31.30;51.80;;;;;;5030201;28;21066;-68
2022/06/02 12:26:02;;;;;;;2.67;1.70;;;30.90;50.10;;;;;;5032534;28;20483;-69
2022/06/02 12:29:04;;;;;;;2.30;2.10;;;28.60;51.60;;;;;;5031003;28;20530;-68
2022/06/02 12:32:05;;;;;;;2.73;2.03;;;27.20;53.10;;;;;;5027290;28;20515;-68
2022/06/02 12:34:52;;;;;;;2.23;2.03;;;26.30;55.30;;;;;;5032372;28;20460;-69
2022/06/02 12:37:36;;;;;;;3.10;2.60;;;25.20;55.60;;;;;;5034024;28;20455;-68
2022/06/02 12:40:14;;;;;;;3.07;2.77;;;24.10;58.00;;;;;;5032663;28;20537;-68
2022/06/02 12:43:19;;;;;;;2.73;2.53;;;23.70;58.30;;;;;;5031382;28;20570;-68
2022/06/02 12:45:49;;;;;;;3.63;2.53;;;23.10;59.10;;;;;;5035216;28;20475;-68
2022/06/02 12:48:54;;;;;;;3.10;2.60;;;23.50;59.50;;;;;;5033648;28;20465;-69
2022/06/02 12:51:49;;;;;;;2.60;2.40;;;25.70;58.30;;;;;;5026245;28;20859;-69
2022/06/02 12:54:54;;;;;;;2.33;2.13;;;28.10;57.20;;;;;;5029637;28;20851;-68
2022/06/02 12:57:50;;;;;;;2.70;2.50;;;28.90;55.00;;;;;;5028624;28;21141;-69
2022/06/02 13:00:32;;;;;;;2.33;2.13;;;29.80;54.70;;;;;;5027106;28;20476;-69
2022/06/02 13:03:39;;;;;;;3.40;2.67;;;30.80;52.60;;;;;;5029908;28;20927;-68
2022/06/02 13:06:43;;;;;;;2.60;2.40;;;30.60;51.70;;;;;;5029056;28;20460;-68
2022/06/02 13:09:33;;;;;;;2.30;2.10;;;30.60;50.40;;;;;;5025823;28;20575;-67
2022/06/02 13:12:23;;;;;;;2.50;2.30;;;30.30;49.60;;;;;;5035788;28;20475;-69
2022/06/02 13:15:16;;;;;;;2.00;1.80;;;30.10;52.10;;;;;;5032895;28;20454;-68
2022/06/02 13:18:11;;;;;;;2.07;1.87;;;31.30;48.70;;;;;;5028557;28;20925;-68
2022/06/02 13:21:09;;;;;;;1.87;1.70;;;30.90;50.30;;;;;;5034346;28;20479;-68
2022/06/02 13:24:02;;;;;;;2.33;1.90;;;30.50;49.70;;;;;;5034015;28;20460;-68
2022/06/02 13:26:58;;;;;;;3.00;2.57;;;29.00;49.30;;;;;;5033762;28;20459;-69
2022/06/02 13:30:09;;;;;;;2.40;2.20;;;27.10;51.50;;;;;;5030831;28;20550;-68
2022/06/02 13:33:09;;;;;;;2.73;2.43;;;24.90;54.60;;;;;;4951863;28;21070;-67
2022/06/02 13:36:05;;;;;;;3.00;2.57;;;23.40;56.90;;;;;;5031315;28;20464;-68
2022/06/02 13:39:06;;;;;;;2.23;2.03;;;23.30;57.50;;;;;;5030704;28;20463;-68
2022/06/02 13:41:53;;;;;;;3.67;2.80;;;23.90;58.50;;;;;;5038979;28;20453;-69
2022/06/02 13:44:49;;;;;;;2.97;2.67;;;25.30;55.50;;;;;;5031912;28;20546;-69
2022/06/02 13:47:54;;;;;;;5.00;3.20;;;26.20;55.10;;;;;;5041903;28;20468;-68
2022/06/02 13:50:38;;;;;;;3.37;3.07;;;26.80;53.00;;;;;;5038391;28;20484;-68
2022/06/02 13:59:59;;;;;;;3.30;3.00;;;24.70;57.80;;;;;;5039835;28;20479;-68
2022/06/02 14:03:01;;;;;;;3.80;3.17;;;24.30;56.30;;;;;;5038678;28;20464;-67
2022/06/02 14:05:49;;;;;;;2.70;2.33;;;23.90;58.50;;;;;;5038281;28;20840;-68
2022/06/02 14:09:14;;;;;;;3.23;2.93;;;23.90;58.70;;;;;;5037857;28;20468;-68
2022/06/02 14:11:50;;;;;;;3.20;2.67;;;23.90;58.90;;;;;;4947871;28;20931;-68
2022/06/02 14:14:54;;;;;;;2.57;2.37;;;24.10;58.30;;;;;;5028195;28;20537;-68
2022/06/02 14:17:36;;;;;;;1.90;1.57;;;23.80;57.40;;;;;;5037567;28;20525;-67
2022/06/02 14:20:14;;;;;;;4.33;2.07;;;23.80;57.90;;;;;;5034159;28;20482;-68
2022/06/02 14:23:04;;;;;;;3.00;2.13;;;24.00;57.40;;;;;;5038347;28;20460;-68
2022/06/02 14:25:43;;;;;;;4.30;2.23;;;23.70;59.60;;;;;;5037537;28;20467;-68
2022/06/02 14:28:23;;;;;;;1.90;1.70;;;23.90;58.50;;;;;;5040149;28;20510;-69
2022/06/02 14:30:54;;;;;;;3.40;2.47;;;23.70;58.70;;;;;;5033763;28;20935;-68
2022/06/02 14:33:29;;;;;;;4.37;2.20;;;23.60;58.70;;;;;;5041476;28;20789;-68
2022/06/02 14:36:03;;;;;;;2.53;2.10;;;23.50;60.90;;;;;;5043435;28;20482;-68
2022/06/02 14:38:45;;;;;;;2.80;2.20;;;23.50;59.30;;;;;;5037208;28;20465;-68
2022/06/02 14:41:20;;;;;;;2.40;2.10;;;23.50;59.00;;;;;;5037765;28;20459;-68